createdAt,value
2022-12-13T00:00:56.868Z,21.13
2022-12-13T00:03:23.326Z,24.23
2022-12-13T00:05:49.782Z,20.53
2022-12-13T00:08:16.764Z,21.67
2022-12-13T00:10:43.326Z,20.67
2022-12-13T00:13:09.775Z,20.20
2022-12-13T00:15:36.219Z,20.60
2022-12-13T00:18:02.736Z,21.43
2022-12-13T00:20:29.308Z,21.02
2022-12-13T00:22:56.057Z,20.57
2022-12-13T00:25:22.616Z,20.67
2022-12-13T00:27:49.075Z,20.37
2022-12-13T00:30:15.606Z,19.25
2022-12-13T00:32:42.153Z,20.98
2022-12-13T00:35:08.736Z,21.53
2022-12-13T00:37:35.228Z,19.93
2022-12-13T00:40:01.682Z,20.77
2022-12-13T00:42:28.169Z,20.90
2022-12-13T00:44:54.610Z,19.38
2022-12-13T00:47:22.235Z,20.58
2022-12-13T00:49:48.873Z,20.83
2022-12-13T00:52:15.268Z,21.27
2022-12-13T00:54:41.774Z,21.20
2022-12-13T00:57:08.245Z,21.30
2022-12-13T00:59:34.760Z,20.08
2022-12-13T01:02:01.280Z,20.47
2022-12-13T01:04:27.826Z,21.17
2022-12-13T01:06:55.102Z,20.40
2022-12-13T01:09:27.064Z,20.60
2022-12-13T01:11:58.279Z,20.07
2022-12-13T01:14:25.666Z,22.10
2022-12-13T01:16:55.729Z,23.80
2022-12-13T01:19:26.584Z,20.80
2022-12-13T01:21:58.571Z,24.40
2022-12-13T01:24:27.349Z,23.17
2022-12-13T01:26:57.131Z,22.40
2022-12-13T01:29:25.988Z,20.95
2022-12-13T01:31:53.804Z,22.53
2022-12-13T01:34:26.583Z,23.73
2022-12-13T01:36:58.341Z,22.70
2022-12-13T01:39:27.024Z,23.17
2022-12-13T01:41:59.192Z,21.15
2022-12-13T01:44:56.401Z,21.73
2022-12-13T01:47:31.819Z,19.92
2022-12-13T01:50:02.131Z,18.77
2022-12-13T01:52:32.259Z,19.05
2022-12-13T01:55:03.581Z,20.98
2022-12-13T01:57:32.925Z,18.17
2022-12-13T01:59:59.620Z,20.05
2022-12-13T02:02:26.203Z,20.55
2022-12-13T02:05:06.721Z,19.43
2022-12-13T02:07:36.545Z,19.92
2022-12-13T02:10:05.999Z,20.90
2022-12-13T02:12:35.449Z,19.90
2022-12-13T02:15:11.545Z,21.77
2022-12-13T02:18:04.257Z,20.38
2022-12-13T02:20:56.206Z,19.85
2022-12-13T02:23:48.194Z,20.42
2022-12-13T02:26:52.122Z,20.15
2022-12-13T02:29:42.416Z,20.15
2022-12-13T02:32:43.797Z,21.00
2022-12-13T02:35:18.581Z,19.58
2022-12-13T02:38:08.724Z,23.35
2022-12-13T02:40:47.734Z,19.23
2022-12-13T02:43:25.360Z,19.58
2022-12-13T02:48:32.863Z,18.13
2022-12-13T02:51:02.901Z,19.75
2022-12-13T02:53:30.151Z,20.27
2022-12-13T02:56:00.597Z,20.63
2022-12-13T02:58:30.890Z,20.67
2022-12-13T03:01:29.049Z,20.10
2022-12-13T03:04:01.715Z,20.10
2022-12-13T03:06:56.292Z,19.57
2022-12-13T03:09:56.799Z,20.23
2022-12-13T03:12:58.552Z,20.13
2022-12-13T03:15:43.623Z,20.57
2022-12-13T03:18:15.875Z,19.60
2022-12-13T03:20:49.796Z,19.90
2022-12-13T03:23:18.579Z,20.17
2022-12-13T03:25:47.361Z,20.63
2022-12-13T03:28:13.895Z,20.70
2022-12-13T03:30:40.293Z,19.73
2022-12-13T03:33:06.739Z,21.77
2022-12-13T03:35:34.920Z,20.73
2022-12-13T03:38:12.817Z,21.03
2022-12-13T03:40:53.177Z,21.97
2022-12-13T03:43:21.805Z,20.93
2022-12-13T03:45:50.190Z,19.47
2022-12-13T03:48:21.984Z,20.87
2022-12-13T03:50:51.628Z,22.17
2022-12-13T03:53:22.166Z,20.77
2022-12-13T03:55:50.326Z,21.53
2022-12-13T03:58:17.028Z,20.57
2022-12-13T04:00:43.708Z,18.70
2022-12-13T04:03:10.548Z,21.03
2022-12-13T04:05:37.301Z,20.43
2022-12-13T04:08:04.233Z,20.60
2022-12-13T04:10:48.592Z,19.47
2022-12-13T04:13:33.239Z,22.03
2022-12-13T04:16:00.883Z,20.27
2022-12-13T04:18:27.575Z,20.97
2022-12-13T04:20:54.105Z,20.83
2022-12-13T04:23:20.516Z,21.37
2022-12-13T04:25:47.110Z,18.33
2022-12-13T04:28:22.279Z,19.93
2022-12-13T04:30:53.362Z,21.07
2022-12-13T04:33:21.866Z,19.63
2022-12-13T04:35:49.115Z,20.03
2022-12-13T04:38:16.037Z,19.55
2022-12-13T04:40:42.551Z,18.53
2022-12-13T04:43:09.293Z,19.57
2022-12-13T04:45:35.892Z,20.02
2022-12-13T04:48:02.444Z,17.77
2022-12-13T04:50:28.975Z,19.88
2022-12-13T04:52:55.614Z,19.85
2022-12-13T04:55:22.052Z,19.40
2022-12-13T04:57:48.488Z,19.38
2022-12-13T05:00:15.392Z,19.55
2022-12-13T05:02:42.144Z,19.92
2022-12-13T05:05:10.303Z,18.33
2022-12-13T05:07:42.330Z,19.02
2022-12-13T05:10:13.993Z,19.23
2022-12-13T05:13:00.343Z,19.73
2022-12-13T05:15:27.490Z,19.88
2022-12-13T05:17:53.939Z,19.10
2022-12-13T05:20:20.459Z,16.80
2022-12-13T05:22:47.146Z,20.23
2022-12-13T05:25:14.534Z,19.95
2022-12-13T05:27:46.702Z,20.00
2022-12-13T05:30:17.721Z,18.90
2022-12-13T05:32:44.996Z,18.33
2022-12-13T05:35:14.137Z,18.38
2022-12-13T05:37:48.419Z,18.90
2022-12-13T05:40:27.414Z,18.47
2022-12-13T05:43:01.287Z,18.37
2022-12-13T05:45:32.838Z,18.70
2022-12-13T05:47:59.748Z,18.38
2022-12-13T05:50:26.217Z,19.05
2022-12-13T05:52:53.102Z,18.47
2022-12-13T05:55:20.051Z,17.67
2022-12-13T05:57:50.703Z,17.33
2022-12-13T06:00:29.266Z,17.05
2022-12-13T06:02:57.927Z,17.67
2022-12-13T06:05:29.467Z,17.17
2022-12-13T06:07:57.739Z,16.33
2022-12-13T06:10:34.273Z,16.17
2022-12-13T06:13:20.872Z,17.55
2022-12-13T06:15:49.989Z,16.77
2022-12-13T06:18:16.415Z,16.60
2022-12-13T06:20:42.941Z,17.90
2022-12-13T06:23:09.465Z,16.67
2022-12-13T06:25:36.872Z,16.63
2022-12-13T06:28:03.677Z,17.10
2022-12-13T06:30:30.695Z,17.35
2022-12-13T06:32:57.439Z,16.02
2022-12-13T06:35:28.061Z,17.38
2022-12-13T06:38:01.449Z,18.02
2022-12-13T06:40:33.599Z,16.88
2022-12-13T06:43:00.722Z,15.45
2022-12-13T06:45:27.565Z,15.93
2022-12-13T06:47:53.997Z,16.88
2022-12-13T06:50:20.511Z,15.82
2022-12-13T06:52:47.233Z,18.40
2022-12-13T06:55:14.481Z,17.58
2022-12-13T06:57:41.527Z,17.23
2022-12-13T07:00:10.081Z,17.80
2022-12-13T07:02:38.123Z,18.67
2022-12-13T07:05:05.279Z,16.85
2022-12-13T07:07:32.032Z,17.30
2022-12-13T07:09:58.474Z,17.27
2022-12-13T07:12:24.983Z,17.52
2022-12-13T07:14:52.216Z,18.00
2022-12-13T07:17:32.749Z,16.30
2022-12-13T07:20:08.115Z,17.10
2022-12-13T07:22:38.764Z,15.65
2022-12-13T07:25:08.722Z,17.80
2022-12-13T07:28:01.671Z,16.77
2022-12-13T07:30:33.492Z,17.65
2022-12-13T07:33:04.302Z,18.90
2022-12-13T07:35:32.317Z,17.63
2022-12-13T07:38:06.562Z,16.57
2022-12-13T07:40:37.322Z,17.50
2022-12-13T07:43:04.766Z,17.88
2022-12-13T07:45:31.923Z,15.18
2022-12-13T07:48:03.155Z,17.17
2022-12-13T07:50:29.659Z,18.13
2022-12-13T07:53:06.571Z,16.13
2022-12-13T07:55:34.344Z,15.65
2022-12-13T07:58:09.123Z,17.15
2022-12-13T08:00:37.589Z,16.10
2022-12-13T08:03:05.445Z,15.32
2022-12-13T08:05:38.337Z,15.63
2022-12-13T08:08:08.639Z,16.75
2022-12-13T08:10:36.011Z,16.33
2022-12-13T08:13:03.174Z,17.17
2022-12-13T08:15:30.088Z,16.05
2022-12-13T08:17:57.179Z,15.52
2022-12-13T08:20:23.795Z,16.58
2022-12-13T08:23:01.728Z,16.70
2022-12-13T08:25:30.417Z,16.92
2022-12-13T08:28:02.079Z,17.42
2022-12-13T08:30:31.252Z,17.23
2022-12-13T08:33:05.130Z,17.13
2022-12-13T08:35:34.609Z,16.95
2022-12-13T08:38:02.361Z,17.88
2022-12-13T08:40:29.092Z,16.05
2022-12-13T08:42:56.409Z,16.95
2022-12-13T08:45:27.062Z,15.98
2022-12-13T08:47:56.803Z,16.17
2022-12-13T08:50:23.233Z,16.88
2022-12-13T08:52:51.996Z,17.75
2022-12-13T08:55:22.465Z,17.05
2022-12-13T08:57:58.529Z,15.82
2022-12-13T09:00:27.997Z,15.30
2022-12-13T09:02:57.391Z,16.23
2022-12-13T09:05:33.637Z,20.38
2022-12-13T09:08:04.057Z,15.65
2022-12-13T09:10:38.634Z,16.77
2022-12-13T09:13:11.858Z,16.37
2022-12-13T09:15:46.100Z,14.85
2022-12-13T09:18:15.274Z,17.15
2022-12-13T09:20:50.418Z,15.75
2022-12-13T09:23:23.144Z,15.35
2022-12-13T09:26:05.579Z,15.95
2022-12-13T09:28:35.130Z,14.10
2022-12-13T09:31:15.936Z,15.30
2022-12-13T09:33:43.466Z,16.42
2022-12-13T09:36:16.489Z,16.13
2022-12-13T09:38:43.566Z,15.57
2022-12-13T09:41:20.151Z,16.27
2022-12-13T09:43:49.928Z,13.13
2022-12-13T09:46:25.776Z,13.27
2022-12-13T09:51:28.335Z,12.25
2022-12-13T09:53:58.128Z,12.65
2022-12-13T09:56:24.705Z,13.45
2022-12-13T09:58:53.843Z,14.25
2022-12-13T10:01:22.527Z,13.93
2022-12-13T10:03:52.775Z,14.27
2022-12-13T10:06:24.620Z,15.68
2022-12-13T10:08:57.192Z,14.93
2022-12-13T10:11:31.448Z,12.90
2022-12-13T10:14:10.932Z,14.05
2022-12-13T10:16:37.558Z,13.48
2022-12-13T10:19:29.214Z,13.48
2022-12-13T10:22:01.265Z,13.43
2022-12-13T10:24:47.194Z,13.05
2022-12-13T10:27:17.474Z,14.27
2022-12-13T10:30:01.904Z,14.32
2022-12-13T10:32:30.136Z,13.52
2022-12-13T10:35:38.304Z,13.68
2022-12-13T10:38:07.887Z,13.13
2022-12-13T10:40:37.775Z,12.70
2022-12-13T10:43:22.580Z,12.07
2022-12-13T10:45:55.618Z,12.73
2022-12-13T10:48:25.142Z,12.82
2022-12-13T10:50:57.930Z,12.10
2022-12-13T10:53:29.956Z,12.15
2022-12-13T10:56:02.440Z,12.73
2022-12-13T10:58:38.900Z,12.15
2022-12-13T11:01:19.953Z,12.18
2022-12-13T11:04:02.198Z,13.05
2022-12-13T11:06:43.495Z,12.32
2022-12-13T11:09:28.151Z,12.20
2022-12-13T11:11:57.987Z,12.85
2022-12-13T11:14:35.594Z,12.43
2022-12-13T11:17:15.479Z,11.70
2022-12-13T11:20:02.434Z,10.20
2022-12-13T11:22:32.608Z,10.88
2022-12-13T11:25:05.493Z,11.85
2022-12-13T11:27:49.725Z,10.18
2022-12-13T11:30:41.342Z,10.23
2022-12-13T11:33:32.894Z,10.50
2022-12-13T11:36:20.187Z,10.55
2022-12-13T11:39:12.559Z,10.27
2022-12-13T11:41:48.707Z,10.13
2022-12-13T11:44:41.833Z,9.38
2022-12-13T11:47:26.245Z,10.18
2022-12-13T11:49:53.336Z,9.35
2022-12-13T11:52:35.466Z,10.80
2022-12-13T11:55:28.196Z,9.73
2022-12-13T11:58:09.789Z,11.23
2022-12-13T12:00:41.857Z,11.38
2022-12-13T12:03:38.746Z,10.85
2022-12-13T12:06:23.024Z,11.80
2022-12-13T12:09:06.011Z,11.43
2022-12-13T12:11:39.463Z,11.35
2022-12-13T12:14:11.444Z,11.07
2022-12-13T12:16:54.279Z,10.02
2022-12-13T12:19:23.604Z,9.80
2022-12-13T12:22:16.243Z,10.77
2022-12-13T12:25:07.209Z,11.07
2022-12-13T12:27:59.474Z,10.07
2022-12-13T12:30:39.300Z,12.30
2022-12-13T12:33:34.858Z,10.82
2022-12-13T12:36:19.922Z,10.83
2022-12-13T12:39:04.218Z,11.90
2022-12-13T12:41:45.540Z,10.40
2022-12-13T12:44:33.551Z,11.27
2022-12-13T12:47:56.402Z,11.45
2022-12-13T12:50:33.273Z,11.13
2022-12-13T12:53:07.458Z,11.20
2022-12-13T12:56:01.891Z,12.23
2022-12-13T12:58:53.340Z,12.57
2022-12-13T13:01:48.980Z,11.63
2022-12-13T13:04:22.288Z,12.27
2022-12-13T13:07:01.906Z,13.13
2022-12-13T13:09:30.016Z,12.82
2022-12-13T13:11:57.974Z,12.48
2022-12-13T13:14:29.925Z,11.95
2022-12-13T13:16:58.320Z,13.13
2022-12-13T13:19:30.821Z,11.88
2022-12-13T13:22:01.430Z,11.77
2022-12-13T13:24:32.708Z,12.88
2022-12-13T13:27:11.182Z,12.18
2022-12-13T13:29:43.352Z,11.40
2022-12-13T13:32:29.212Z,12.57
2022-12-13T13:35:47.871Z,14.02
2022-12-13T13:38:17.537Z,14.57
2022-12-13T13:40:44.072Z,12.60
2022-12-13T13:43:10.476Z,12.98
2022-12-13T13:45:52.107Z,13.45
2022-12-13T13:48:36.419Z,13.73
2022-12-13T13:52:01.051Z,13.23
2022-12-13T13:54:37.464Z,13.48
2022-12-13T13:58:07.510Z,14.63
2022-12-13T14:00:21.838Z,13.82
2022-12-13T14:03:34.155Z,14.10
2022-12-13T14:06:16.024Z,14.15
2022-12-13T14:09:07.952Z,14.52
2022-12-13T14:11:45.421Z,14.32
2022-12-13T14:15:07.886Z,13.57
2022-12-13T14:18:21.559Z,13.70
2022-12-13T14:20:55.328Z,15.15
2022-12-13T14:23:35.717Z,16.52
2022-12-13T14:26:18.339Z,16.00
2022-12-13T14:28:57.600Z,15.63
2022-12-13T14:31:39.355Z,15.18
2022-12-13T14:34:07.858Z,17.70
2022-12-13T14:36:36.571Z,17.02
2022-12-13T14:39:24.662Z,17.45
2022-12-13T14:41:58.247Z,17.08
2022-12-13T14:44:28.089Z,17.00
2022-12-13T14:46:58.867Z,17.25
2022-12-13T14:49:28.023Z,16.27
2022-12-13T14:52:00.822Z,17.27
2022-12-13T14:54:43.622Z,17.90
2022-12-13T14:57:17.299Z,17.27
2022-12-13T14:59:50.775Z,17.38
2022-12-13T15:02:30.856Z,17.23
2022-12-13T15:05:04.626Z,19.70
2022-12-13T15:07:35.669Z,17.70
2022-12-13T15:10:24.427Z,19.17
2022-12-13T15:12:53.527Z,16.73
2022-12-13T15:15:28.998Z,19.88
2022-12-13T15:18:17.258Z,19.02
2022-12-13T15:20:49.768Z,16.30
2022-12-13T15:23:26.315Z,17.83
2022-12-13T15:26:07.246Z,16.58
2022-12-13T15:28:37.092Z,18.77
2022-12-13T15:31:05.871Z,18.67
2022-12-13T15:33:36.709Z,18.60
2022-12-13T15:36:19.454Z,18.33
2022-12-13T15:38:55.291Z,18.67
2022-12-13T15:41:27.150Z,19.85
2022-12-13T15:44:01.248Z,17.92
2022-12-13T15:46:31.537Z,20.42
2022-12-13T15:49:01.250Z,21.02
2022-12-13T15:51:30.586Z,21.40
2022-12-13T15:54:09.098Z,19.67
2022-12-13T15:56:57.889Z,19.65
2022-12-13T15:59:31.117Z,19.90
2022-12-13T16:01:58.827Z,20.45
2022-12-13T16:04:32.778Z,23.13
2022-12-13T16:07:01.193Z,21.27
2022-12-13T16:09:31.732Z,20.30
2022-12-13T16:12:04.586Z,24.05
2022-12-13T16:14:49.643Z,21.85
2022-12-13T16:17:24.672Z,22.00
2022-12-13T16:19:56.443Z,23.67
2022-12-13T16:22:24.031Z,20.83
2022-12-13T16:24:52.420Z,22.40
2022-12-13T16:27:21.195Z,22.67
2022-12-13T16:29:47.985Z,23.05
2022-12-13T16:32:15.513Z,21.45
2022-12-13T16:34:43.271Z,25.17
2022-12-13T16:37:26.510Z,24.25
2022-12-13T16:39:56.103Z,24.45
2022-12-13T16:42:25.810Z,24.10
2022-12-13T16:45:11.280Z,22.20
2022-12-13T16:47:46.389Z,22.65
2022-12-13T16:50:21.498Z,23.48
2022-12-13T16:52:48.937Z,22.40
2022-12-13T16:55:15.859Z,24.10
2022-12-13T16:57:45.822Z,24.13
2022-12-13T17:00:13.850Z,24.15
2022-12-13T17:02:41.147Z,23.67
2022-12-13T17:05:09.060Z,24.40
2022-12-13T17:07:36.116Z,25.85
2022-12-13T17:10:04.910Z,22.63
2022-12-13T17:12:32.670Z,26.30
2022-12-13T17:15:02.177Z,25.17
2022-12-13T17:17:29.837Z,27.17
2022-12-13T17:19:57.137Z,26.63
2022-12-13T17:22:24.238Z,25.35
2022-12-13T17:24:51.297Z,28.58
2022-12-13T17:27:18.446Z,28.88
2022-12-13T17:29:47.538Z,27.90
2022-12-13T17:32:14.187Z,28.52
2022-12-13T17:34:41.216Z,27.92
2022-12-13T17:37:10.586Z,27.10
2022-12-13T17:39:37.780Z,27.45
2022-12-13T17:42:11.771Z,26.55
2022-12-13T17:44:38.990Z,25.83
2022-12-13T17:47:05.888Z,25.58
2022-12-13T17:49:33.136Z,27.98
2022-12-13T17:52:04.139Z,29.02
2022-12-13T17:54:30.882Z,29.42
2022-12-13T17:57:01.768Z,26.55
2022-12-13T17:59:28.610Z,25.55
2022-12-13T18:01:55.514Z,25.85
2022-12-13T18:04:29.341Z,27.73
2022-12-13T18:06:58.437Z,26.65
2022-12-13T18:09:26.614Z,28.00
2022-12-13T18:11:54.640Z,27.25
2022-12-13T18:14:23.680Z,29.27
2022-12-13T18:16:50.766Z,26.75
2022-12-13T18:19:20.336Z,25.67
2022-12-13T18:21:48.263Z,25.42
2022-12-13T18:24:15.179Z,26.23
2022-12-13T18:26:43.305Z,30.25
2022-12-13T18:29:10.271Z,27.10
2022-12-13T18:31:38.284Z,26.63
2022-12-13T18:34:11.363Z,26.98
2022-12-13T18:36:39.439Z,25.45
2022-12-13T18:39:05.864Z,27.42
2022-12-13T18:41:32.581Z,26.70
2022-12-13T18:44:01.888Z,26.55
2022-12-13T18:46:30.562Z,27.35
2022-12-13T18:48:57.514Z,25.45
2022-12-13T18:51:24.531Z,28.00
2022-12-13T18:53:51.791Z,25.02
2022-12-13T18:56:19.490Z,26.25
2022-12-13T18:58:47.982Z,27.10
2022-12-13T19:01:16.104Z,26.00
2022-12-13T19:03:45.078Z,27.42
2022-12-13T19:06:17.631Z,26.33
2022-12-13T19:08:51.454Z,25.80
2022-12-13T19:11:18.653Z,25.63
2022-12-13T19:13:45.989Z,27.17
2022-12-13T19:16:15.132Z,26.10
2022-12-13T19:18:42.314Z,26.35
2022-12-13T19:21:11.552Z,23.88
2022-12-13T19:23:40.662Z,25.23
2022-12-13T19:26:09.672Z,24.88
2022-12-13T19:28:37.991Z,23.88
2022-12-13T19:31:06.535Z,23.48
2022-12-13T19:33:33.720Z,24.88
2022-12-13T19:36:01.248Z,39.10
2022-12-13T19:38:28.199Z,25.83
2022-12-13T19:40:55.261Z,26.90
2022-12-13T19:43:22.160Z,24.60
2022-12-13T19:45:49.121Z,24.20
2022-12-13T19:48:16.248Z,26.95
2022-12-13T19:50:44.204Z,26.27
2022-12-13T19:53:11.654Z,24.58
2022-12-13T19:55:43.438Z,24.08
2022-12-13T19:58:09.845Z,25.13
2022-12-13T20:00:36.377Z,24.05
2022-12-13T20:03:03.913Z,24.73
2022-12-13T20:05:30.373Z,23.10
2022-12-13T20:07:58.869Z,23.80
2022-12-13T20:10:26.250Z,25.17
2022-12-13T20:12:53.747Z,23.38
2022-12-13T20:15:20.237Z,25.40
2022-12-13T20:17:46.853Z,22.55
2022-12-13T20:20:13.291Z,22.95
2022-12-13T20:22:39.751Z,22.73
2022-12-13T20:25:07.023Z,23.63
2022-12-13T20:27:33.553Z,22.67
2022-12-13T20:30:00.083Z,23.27
2022-12-13T20:32:26.609Z,22.88
2022-12-13T20:34:55.111Z,24.40
2022-12-13T20:37:23.969Z,21.88
2022-12-13T20:39:50.781Z,21.60
2022-12-13T20:42:17.274Z,23.25
2022-12-13T20:44:43.747Z,23.20
2022-12-13T20:47:10.420Z,23.60
2022-12-13T20:49:36.934Z,24.42
2022-12-13T20:52:03.652Z,23.80
2022-12-13T20:54:30.205Z,22.77
2022-12-13T20:56:56.759Z,22.33
2022-12-13T20:59:23.189Z,21.90
2022-12-13T21:01:49.663Z,22.60
2022-12-13T21:04:16.320Z,20.23
2022-12-13T21:06:42.791Z,20.13
2022-12-13T21:09:10.673Z,21.83
2022-12-13T21:11:44.115Z,22.77
2022-12-13T21:14:20.443Z,21.33
2022-12-13T21:17:10.936Z,21.13
2022-12-13T21:19:40.666Z,20.58
2022-12-13T21:22:08.830Z,20.77
2022-12-13T21:24:35.514Z,22.87
2022-12-13T21:27:05.606Z,20.92
2022-12-13T21:29:33.708Z,20.92
2022-12-13T21:32:01.563Z,20.48
2022-12-13T21:34:30.241Z,19.75
2022-12-13T21:36:57.655Z,20.85
2022-12-13T21:39:29.942Z,20.15
2022-12-13T21:41:57.810Z,21.48
2022-12-13T21:44:24.669Z,20.70
2022-12-13T21:47:11.903Z,19.17
2022-12-13T21:49:39.492Z,19.67
2022-12-13T21:52:08.396Z,20.17
2022-12-13T21:54:40.920Z,32.85
2022-12-13T21:57:26.706Z,21.73
2022-12-13T21:59:53.994Z,19.65
2022-12-13T22:02:27.315Z,20.20
2022-12-13T22:04:55.900Z,19.63
2022-12-13T22:07:25.491Z,19.70
2022-12-13T22:09:53.596Z,19.43
2022-12-13T22:12:29.596Z,19.57
2022-12-13T22:14:56.461Z,17.70
2022-12-13T22:17:31.329Z,17.70
2022-12-13T22:20:10.891Z,18.53
2022-12-13T22:22:42.079Z,14.52
2022-12-13T22:25:10.370Z,17.77
2022-12-13T22:27:37.702Z,18.93
2022-12-13T22:30:05.281Z,17.73
2022-12-13T22:32:32.462Z,17.33
2022-12-13T22:35:03.381Z,18.13
2022-12-13T22:37:33.169Z,16.30
2022-12-13T22:40:00.799Z,16.83
2022-12-13T22:42:31.260Z,15.87
2022-12-13T22:45:02.139Z,15.63
2022-12-13T22:47:38.008Z,16.50
2022-12-13T22:50:06.670Z,16.40
2022-12-13T22:52:37.318Z,16.17
2022-12-13T22:55:04.079Z,16.17
2022-12-13T22:57:30.929Z,15.30
2022-12-13T22:59:57.733Z,16.70
2022-12-13T23:02:26.393Z,15.53
2022-12-13T23:04:53.527Z,15.60
2022-12-13T23:07:21.935Z,16.30
2022-12-13T23:09:49.825Z,17.73
2022-12-13T23:12:35.644Z,16.00
2022-12-13T23:15:04.672Z,15.50
2022-12-13T23:17:31.817Z,16.20
2022-12-13T23:19:59.319Z,15.07
2022-12-13T23:22:26.482Z,16.30
2022-12-13T23:24:56.860Z,15.73
2022-12-13T23:27:26.391Z,16.20
2022-12-13T23:29:53.337Z,15.23
2022-12-13T23:32:23.495Z,16.30
2022-12-13T23:34:51.634Z,14.83
2022-12-13T23:37:19.052Z,16.00
2022-12-13T23:39:47.526Z,16.47
2022-12-13T23:42:14.211Z,14.37
2022-12-13T23:44:43.353Z,15.30
2022-12-13T23:47:10.007Z,14.93
2022-12-13T23:49:36.637Z,14.57
2022-12-13T23:52:03.449Z,14.93
2022-12-13T23:54:29.986Z,14.87
2022-12-13T23:56:56.687Z,14.77
2022-12-13T23:59:25.823Z,14.50
